sensor_id;sensor_type;location;lat;lon;timestamp;P1;durP1;ratioP1;P2;durP2;ratioP2
76745;SDS011;65671;49.976;20.038;2023-05-10T00:00:37;7.22;;;4.47;;
76745;SDS011;65671;49.976;20.038;2023-05-10T00:03:02;8.85;;;4.95;;
76745;SDS011;65671;49.976;20.038;2023-05-10T00:05:29;11.38;;;6.30;;
76745;SDS011;65671;49.976;20.038;2023-05-10T00:07:56;11.55;;;6.47;;
76745;SDS011;65671;49.976;20.038;2023-05-10T00:10:22;10.55;;;5.10;;
76745;SDS011;65671;49.976;20.038;2023-05-10T00:12:47;9.25;;;4.88;;
76745;SDS011;65671;49.976;20.038;2023-05-10T00:15:13;10.40;;;5.35;;
76745;SDS011;65671;49.976;20.038;2023-05-10T00:17:38;7.00;;;4.10;;
76745;SDS011;65671;49.976;20.038;2023-05-10T00:20:04;8.00;;;4.55;;
76745;SDS011;65671;49.976;20.038;2023-05-10T00:22:31;8.95;;;4.70;;
76745;SDS011;65671;49.976;20.038;2023-05-10T00:24:57;6.40;;;4.32;;
76745;SDS011;65671;49.976;20.038;2023-05-10T00:27:23;9.13;;;4.85;;
76745;SDS011;65671;49.976;20.038;2023-05-10T00:29:49;9.00;;;5.10;;
76745;SDS011;65671;49.976;20.038;2023-05-10T00:32:15;10.18;;;4.90;;
76745;SDS011;65671;49.976;20.038;2023-05-10T00:34:41;7.70;;;5.18;;
76745;SDS011;65671;49.976;20.038;2023-05-10T00:37:06;6.63;;;3.90;;
76745;SDS011;65671;49.976;20.038;2023-05-10T00:39:32;6.30;;;4.10;;
76745;SDS011;65671;49.976;20.038;2023-05-10T00:41:57;10.07;;;4.75;;
76745;SDS011;65671;49.976;20.038;2023-05-10T00:44:23;7.20;;;4.00;;
76745;SDS011;65671;49.976;20.038;2023-05-10T00:46:48;6.35;;;3.92;;
76745;SDS011;65671;49.976;20.038;2023-05-10T00:49:14;6.97;;;4.22;;
76745;SDS011;65671;49.976;20.038;2023-05-10T00:51:41;7.72;;;4.30;;
76745;SDS011;65671;49.976;20.038;2023-05-10T00:54:08;5.70;;;3.70;;
76745;SDS011;65671;49.976;20.038;2023-05-10T00:56:36;5.57;;;4.13;;
76745;SDS011;65671;49.976;20.038;2023-05-10T00:59:03;7.00;;;4.18;;
76745;SDS011;65671;49.976;20.038;2023-05-10T01:01:28;5.55;;;3.80;;
76745;SDS011;65671;49.976;20.038;2023-05-10T01:03:55;6.78;;;4.32;;
76745;SDS011;65671;49.976;20.038;2023-05-10T01:06:22;7.78;;;4.30;;
76745;SDS011;65671;49.976;20.038;2023-05-10T01:08:48;7.03;;;4.20;;
76745;SDS011;65671;49.976;20.038;2023-05-10T01:11:13;8.55;;;4.43;;
76745;SDS011;65671;49.976;20.038;2023-05-10T01:13:41;7.45;;;3.83;;
76745;SDS011;65671;49.976;20.038;2023-05-10T01:16:08;6.00;;;3.45;;
76745;SDS011;65671;49.976;20.038;2023-05-10T01:18:35;6.10;;;3.92;;
76745;SDS011;65671;49.976;20.038;2023-05-10T01:21:15;6.35;;;4.05;;
76745;SDS011;65671;49.976;20.038;2023-05-10T01:35:01;7.80;;;4.22;;
76745;SDS011;65671;49.976;20.038;2023-05-10T01:37:47;8.10;;;4.78;;
76745;SDS011;65671;49.976;20.038;2023-05-10T01:42:57;6.18;;;3.78;;
76745;SDS011;65671;49.976;20.038;2023-05-10T01:45:28;5.85;;;3.70;;
76745;SDS011;65671;49.976;20.038;2023-05-10T01:48:04;6.75;;;4.03;;
76745;SDS011;65671;49.976;20.038;2023-05-10T01:50:38;6.30;;;3.92;;
76745;SDS011;65671;49.976;20.038;2023-05-10T01:53:07;6.38;;;4.22;;
76745;SDS011;65671;49.976;20.038;2023-05-10T01:55:35;6.95;;;4.22;;
76745;SDS011;65671;49.976;20.038;2023-05-10T01:58:10;6.55;;;3.85;;
76745;SDS011;65671;49.976;20.038;2023-05-10T02:00:42;5.10;;;3.60;;
76745;SDS011;65671;49.976;20.038;2023-05-10T02:03:09;5.43;;;3.80;;
76745;SDS011;65671;49.976;20.038;2023-05-10T02:05:37;7.93;;;4.18;;
76745;SDS011;65671;49.976;20.038;2023-05-10T02:08:05;9.45;;;3.67;;
76745;SDS011;65671;49.976;20.038;2023-05-10T02:10:34;7.70;;;4.38;;
76745;SDS011;65671;49.976;20.038;2023-05-10T02:13:01;7.53;;;4.03;;
76745;SDS011;65671;49.976;20.038;2023-05-10T02:15:28;6.38;;;3.83;;
76745;SDS011;65671;49.976;20.038;2023-05-10T02:17:56;7.82;;;4.18;;
76745;SDS011;65671;49.976;20.038;2023-05-10T02:20:25;22.20;;;12.05;;
76745;SDS011;65671;49.976;20.038;2023-05-10T02:22:52;7.03;;;4.00;;
76745;SDS011;65671;49.976;20.038;2023-05-10T02:25:20;6.28;;;3.78;;
76745;SDS011;65671;49.976;20.038;2023-05-10T02:27:48;7.55;;;3.83;;
76745;SDS011;65671;49.976;20.038;2023-05-10T02:30:15;7.80;;;4.15;;
76745;SDS011;65671;49.976;20.038;2023-05-10T02:32:43;10.23;;;5.15;;
76745;SDS011;65671;49.976;20.038;2023-05-10T02:35:10;9.30;;;5.40;;
76745;SDS011;65671;49.976;20.038;2023-05-10T02:37:37;9.23;;;5.43;;
76745;SDS011;65671;49.976;20.038;2023-05-10T02:40:05;8.60;;;5.18;;
76745;SDS011;65671;49.976;20.038;2023-05-10T02:42:33;8.63;;;5.10;;
76745;SDS011;65671;49.976;20.038;2023-05-10T02:45:03;8.10;;;5.00;;
76745;SDS011;65671;49.976;20.038;2023-05-10T02:47:33;10.98;;;5.60;;
76745;SDS011;65671;49.976;20.038;2023-05-10T02:49:59;10.55;;;4.97;;
76745;SDS011;65671;49.976;20.038;2023-05-10T02:52:26;7.13;;;3.72;;
76745;SDS011;65671;49.976;20.038;2023-05-10T02:54:55;5.75;;;3.40;;
76745;SDS011;65671;49.976;20.038;2023-05-10T02:57:27;7.15;;;4.38;;
76745;SDS011;65671;49.976;20.038;2023-05-10T02:59:57;11.15;;;5.45;;
76745;SDS011;65671;49.976;20.038;2023-05-10T03:02:23;11.23;;;6.15;;
76745;SDS011;65671;49.976;20.038;2023-05-10T03:04:49;9.13;;;6.10;;
76745;SDS011;65671;49.976;20.038;2023-05-10T03:07:14;11.52;;;6.85;;
76745;SDS011;65671;49.976;20.038;2023-05-10T03:09:41;12.95;;;6.40;;
76745;SDS011;65671;49.976;20.038;2023-05-10T03:15:00;7.43;;;4.43;;
76745;SDS011;65671;49.976;20.038;2023-05-10T03:17:48;8.00;;;4.47;;
76745;SDS011;65671;49.976;20.038;2023-05-10T03:20:29;10.82;;;3.78;;
76745;SDS011;65671;49.976;20.038;2023-05-10T03:23:07;8.77;;;4.43;;
76745;SDS011;65671;49.976;20.038;2023-05-10T03:25:37;10.20;;;5.53;;
76745;SDS011;65671;49.976;20.038;2023-05-10T03:28:06;14.77;;;6.32;;
76745;SDS011;65671;49.976;20.038;2023-05-10T03:30:32;9.23;;;5.93;;
76745;SDS011;65671;49.976;20.038;2023-05-10T03:33:04;8.50;;;5.82;;
76745;SDS011;65671;49.976;20.038;2023-05-10T03:35:32;13.07;;;6.13;;
76745;SDS011;65671;49.976;20.038;2023-05-10T03:37:58;11.77;;;6.00;;
76745;SDS011;65671;49.976;20.038;2023-05-10T03:40:25;12.88;;;6.03;;
76745;SDS011;65671;49.976;20.038;2023-05-10T03:42:54;9.60;;;5.10;;
76745;SDS011;65671;49.976;20.038;2023-05-10T03:45:20;9.63;;;4.80;;
76745;SDS011;65671;49.976;20.038;2023-05-10T03:47:46;9.80;;;4.90;;
76745;SDS011;65671;49.976;20.038;2023-05-10T03:50:11;6.88;;;4.30;;
76745;SDS011;65671;49.976;20.038;2023-05-10T03:52:37;7.38;;;4.32;;
76745;SDS011;65671;49.976;20.038;2023-05-10T03:55:04;10.25;;;5.03;;
76745;SDS011;65671;49.976;20.038;2023-05-10T03:57:31;8.85;;;5.30;;
76745;SDS011;65671;49.976;20.038;2023-05-10T03:59:57;9.98;;;5.68;;
76745;SDS011;65671;49.976;20.038;2023-05-10T04:02:22;10.20;;;6.03;;
76745;SDS011;65671;49.976;20.038;2023-05-10T04:04:48;9.88;;;5.03;;
76745;SDS011;65671;49.976;20.038;2023-05-10T04:07:14;11.68;;;5.57;;
76745;SDS011;65671;49.976;20.038;2023-05-10T04:09:40;7.57;;;5.47;;
76745;SDS011;65671;49.976;20.038;2023-05-10T04:12:05;8.00;;;5.53;;
76745;SDS011;65671;49.976;20.038;2023-05-10T04:14:31;10.60;;;5.80;;
76745;SDS011;65671;49.976;20.038;2023-05-10T04:16:57;10.43;;;6.05;;
76745;SDS011;65671;49.976;20.038;2023-05-10T04:19:23;10.50;;;5.82;;
76745;SDS011;65671;49.976;20.038;2023-05-10T04:21:48;7.88;;;5.20;;
76745;SDS011;65671;49.976;20.038;2023-05-10T04:24:14;8.38;;;5.53;;
76745;SDS011;65671;49.976;20.038;2023-05-10T04:26:40;10.60;;;6.10;;
76745;SDS011;65671;49.976;20.038;2023-05-10T04:29:05;11.43;;;6.13;;
76745;SDS011;65671;49.976;20.038;2023-05-10T04:31:31;12.60;;;5.75;;
76745;SDS011;65671;49.976;20.038;2023-05-10T04:33:57;10.63;;;6.68;;
76745;SDS011;65671;49.976;20.038;2023-05-10T04:36:22;11.90;;;5.57;;
76745;SDS011;65671;49.976;20.038;2023-05-10T04:38:48;12.77;;;6.38;;
76745;SDS011;65671;49.976;20.038;2023-05-10T04:41:13;10.27;;;6.20;;
76745;SDS011;65671;49.976;20.038;2023-05-10T04:43:39;10.93;;;5.85;;
76745;SDS011;65671;49.976;20.038;2023-05-10T04:46:06;9.32;;;6.15;;
76745;SDS011;65671;49.976;20.038;2023-05-10T04:48:35;12.85;;;6.88;;
76745;SDS011;65671;49.976;20.038;2023-05-10T04:51:00;14.20;;;6.80;;
76745;SDS011;65671;49.976;20.038;2023-05-10T04:53:26;10.60;;;6.57;;
76745;SDS011;65671;49.976;20.038;2023-05-10T04:55:51;15.05;;;7.10;;
76745;SDS011;65671;49.976;20.038;2023-05-10T04:58:17;11.45;;;6.47;;
76745;SDS011;65671;49.976;20.038;2023-05-10T05:00:42;10.35;;;6.60;;
76745;SDS011;65671;49.976;20.038;2023-05-10T05:03:09;11.80;;;6.57;;
76745;SDS011;65671;49.976;20.038;2023-05-10T05:05:34;12.75;;;6.60;;
76745;SDS011;65671;49.976;20.038;2023-05-10T05:08:00;10.38;;;6.25;;
76745;SDS011;65671;49.976;20.038;2023-05-10T05:10:26;9.18;;;6.13;;
76745;SDS011;65671;49.976;20.038;2023-05-10T05:12:51;13.02;;;6.68;;
76745;SDS011;65671;49.976;20.038;2023-05-10T05:15:16;11.52;;;6.38;;
76745;SDS011;65671;49.976;20.038;2023-05-10T05:17:42;10.68;;;6.28;;
76745;SDS011;65671;49.976;20.038;2023-05-10T05:20:08;10.48;;;6.28;;
76745;SDS011;65671;49.976;20.038;2023-05-10T05:22:38;9.85;;;7.07;;
76745;SDS011;65671;49.976;20.038;2023-05-10T05:25:04;12.98;;;7.13;;
76745;SDS011;65671;49.976;20.038;2023-05-10T05:27:31;13.95;;;6.13;;
76745;SDS011;65671;49.976;20.038;2023-05-10T05:29:57;10.88;;;6.80;;
76745;SDS011;65671;49.976;20.038;2023-05-10T05:32:23;11.50;;;7.03;;
76745;SDS011;65671;49.976;20.038;2023-05-10T05:34:49;16.25;;;7.18;;
76745;SDS011;65671;49.976;20.038;2023-05-10T05:37:16;11.35;;;6.85;;
76745;SDS011;65671;49.976;20.038;2023-05-10T05:39:43;13.45;;;6.75;;
76745;SDS011;65671;49.976;20.038;2023-05-10T05:42:09;13.75;;;7.53;;
76745;SDS011;65671;49.976;20.038;2023-05-10T05:44:35;10.27;;;6.88;;
76745;SDS011;65671;49.976;20.038;2023-05-10T05:47:00;11.43;;;6.90;;
76745;SDS011;65671;49.976;20.038;2023-05-10T05:49:26;13.07;;;7.88;;
76745;SDS011;65671;49.976;20.038;2023-05-10T05:51:52;10.00;;;7.30;;
76745;SDS011;65671;49.976;20.038;2023-05-10T05:54:17;9.00;;;6.72;;
76745;SDS011;65671;49.976;20.038;2023-05-10T05:56:43;10.60;;;6.15;;
76745;SDS011;65671;49.976;20.038;2023-05-10T05:59:09;11.18;;;7.05;;
76745;SDS011;65671;49.976;20.038;2023-05-10T06:01:38;10.77;;;7.70;;
76745;SDS011;65671;49.976;20.038;2023-05-10T06:04:03;10.38;;;6.55;;
76745;SDS011;65671;49.976;20.038;2023-05-10T06:06:29;12.77;;;5.97;;
76745;SDS011;65671;49.976;20.038;2023-05-10T06:08:55;9.60;;;6.22;;
76745;SDS011;65671;49.976;20.038;2023-05-10T06:11:20;14.77;;;6.05;;
76745;SDS011;65671;49.976;20.038;2023-05-10T06:13:46;11.13;;;6.03;;
76745;SDS011;65671;49.976;20.038;2023-05-10T06:16:13;12.13;;;6.07;;
76745;SDS011;65671;49.976;20.038;2023-05-10T06:18:38;12.27;;;5.78;;
76745;SDS011;65671;49.976;20.038;2023-05-10T06:21:04;11.65;;;5.53;;
76745;SDS011;65671;49.976;20.038;2023-05-10T06:23:30;10.85;;;6.70;;
76745;SDS011;65671;49.976;20.038;2023-05-10T06:25:55;10.32;;;6.25;;
76745;SDS011;65671;49.976;20.038;2023-05-10T06:28:20;9.27;;;5.45;;
76745;SDS011;65671;49.976;20.038;2023-05-10T06:30:46;11.02;;;5.93;;
76745;SDS011;65671;49.976;20.038;2023-05-10T06:33:12;8.88;;;5.47;;
76745;SDS011;65671;49.976;20.038;2023-05-10T06:35:38;10.02;;;6.03;;
76745;SDS011;65671;49.976;20.038;2023-05-10T06:38:04;8.68;;;5.38;;
76745;SDS011;65671;49.976;20.038;2023-05-10T06:40:29;9.30;;;5.60;;
76745;SDS011;65671;49.976;20.038;2023-05-10T06:42:55;8.43;;;5.47;;
76745;SDS011;65671;49.976;20.038;2023-05-10T06:45:20;9.27;;;5.63;;
76745;SDS011;65671;49.976;20.038;2023-05-10T06:47:46;7.63;;;4.70;;
76745;SDS011;65671;49.976;20.038;2023-05-10T06:50:12;6.85;;;4.97;;
76745;SDS011;65671;49.976;20.038;2023-05-10T06:52:37;10.93;;;4.85;;
76745;SDS011;65671;49.976;20.038;2023-05-10T06:55:04;9.45;;;5.13;;
76745;SDS011;65671;49.976;20.038;2023-05-10T06:57:30;9.57;;;5.65;;
76745;SDS011;65671;49.976;20.038;2023-05-10T06:59:57;10.50;;;4.65;;
76745;SDS011;65671;49.976;20.038;2023-05-10T07:02:25;8.07;;;4.80;;
76745;SDS011;65671;49.976;20.038;2023-05-10T07:04:52;7.38;;;4.65;;
76745;SDS011;65671;49.976;20.038;2023-05-10T07:07:17;9.38;;;5.10;;
76745;SDS011;65671;49.976;20.038;2023-05-10T07:09:43;6.75;;;4.60;;
76745;SDS011;65671;49.976;20.038;2023-05-10T07:12:09;6.45;;;4.50;;
76745;SDS011;65671;49.976;20.038;2023-05-10T07:14:35;9.77;;;4.93;;
76745;SDS011;65671;49.976;20.038;2023-05-10T07:17:00;8.43;;;4.68;;
76745;SDS011;65671;49.976;20.038;2023-05-10T07:19:26;9.38;;;4.95;;
76745;SDS011;65671;49.976;20.038;2023-05-10T07:21:51;10.68;;;4.60;;
76745;SDS011;65671;49.976;20.038;2023-05-10T07:24:17;6.13;;;4.57;;
76745;SDS011;65671;49.976;20.038;2023-05-10T07:26:43;6.22;;;4.18;;
76745;SDS011;65671;49.976;20.038;2023-05-10T07:29:09;5.40;;;3.72;;
76745;SDS011;65671;49.976;20.038;2023-05-10T07:31:35;6.18;;;4.45;;
76745;SDS011;65671;49.976;20.038;2023-05-10T07:34:00;8.80;;;4.38;;
76745;SDS011;65671;49.976;20.038;2023-05-10T07:36:26;8.95;;;4.68;;
76745;SDS011;65671;49.976;20.038;2023-05-10T07:38:52;5.82;;;4.00;;
76745;SDS011;65671;49.976;20.038;2023-05-10T07:41:18;8.45;;;4.07;;
76745;SDS011;65671;49.976;20.038;2023-05-10T07:43:43;6.18;;;4.40;;
76745;SDS011;65671;49.976;20.038;2023-05-10T07:46:09;7.63;;;4.38;;
76745;SDS011;65671;49.976;20.038;2023-05-10T07:48:36;6.15;;;4.32;;
76745;SDS011;65671;49.976;20.038;2023-05-10T07:51:02;9.55;;;4.72;;
76745;SDS011;65671;49.976;20.038;2023-05-10T07:53:27;5.20;;;3.97;;
76745;SDS011;65671;49.976;20.038;2023-05-10T07:55:59;6.75;;;4.30;;
76745;SDS011;65671;49.976;20.038;2023-05-10T07:58:24;6.07;;;3.40;;
76745;SDS011;65671;49.976;20.038;2023-05-10T08:00:50;5.75;;;3.83;;
76745;SDS011;65671;49.976;20.038;2023-05-10T08:03:16;6.18;;;3.40;;
76745;SDS011;65671;49.976;20.038;2023-05-10T08:05:41;4.90;;;2.97;;
76745;SDS011;65671;49.976;20.038;2023-05-10T08:08:07;4.55;;;3.50;;
76745;SDS011;65671;49.976;20.038;2023-05-10T08:10:32;5.10;;;3.17;;
76745;SDS011;65671;49.976;20.038;2023-05-10T08:12:58;5.43;;;3.40;;
76745;SDS011;65671;49.976;20.038;2023-05-10T08:15:24;4.72;;;3.20;;
76745;SDS011;65671;49.976;20.038;2023-05-10T08:17:53;4.30;;;3.38;;
76745;SDS011;65671;49.976;20.038;2023-05-10T08:20:19;7.05;;;3.50;;
76745;SDS011;65671;49.976;20.038;2023-05-10T08:22:45;7.68;;;3.30;;
76745;SDS011;65671;49.976;20.038;2023-05-10T08:25:11;6.22;;;3.10;;
76745;SDS011;65671;49.976;20.038;2023-05-10T08:27:37;6.28;;;3.47;;
76745;SDS011;65671;49.976;20.038;2023-05-10T08:30:02;5.25;;;3.30;;
76745;SDS011;65671;49.976;20.038;2023-05-10T08:32:28;4.13;;;3.15;;
76745;SDS011;65671;49.976;20.038;2023-05-10T08:34:55;4.72;;;2.97;;
76745;SDS011;65671;49.976;20.038;2023-05-10T08:37:22;6.30;;;3.08;;
76745;SDS011;65671;49.976;20.038;2023-05-10T08:39:48;4.13;;;3.00;;
76745;SDS011;65671;49.976;20.038;2023-05-10T08:42:15;4.07;;;2.63;;
76745;SDS011;65671;49.976;20.038;2023-05-10T08:44:44;5.85;;;2.70;;
76745;SDS011;65671;49.976;20.038;2023-05-10T08:47:13;4.35;;;3.00;;
76745;SDS011;65671;49.976;20.038;2023-05-10T08:49:41;4.50;;;2.97;;
76745;SDS011;65671;49.976;20.038;2023-05-10T08:52:08;4.63;;;3.20;;
76745;SDS011;65671;49.976;20.038;2023-05-10T08:54:38;4.70;;;2.80;;
76745;SDS011;65671;49.976;20.038;2023-05-10T08:57:04;4.25;;;2.80;;
76745;SDS011;65671;49.976;20.038;2023-05-10T08:59:29;5.53;;;3.30;;
76745;SDS011;65671;49.976;20.038;2023-05-10T09:01:57;7.00;;;2.60;;
76745;SDS011;65671;49.976;20.038;2023-05-10T09:04:23;4.20;;;3.00;;
76745;SDS011;65671;49.976;20.038;2023-05-10T09:06:49;4.70;;;2.72;;
76745;SDS011;65671;49.976;20.038;2023-05-10T09:09:15;4.05;;;2.50;;
76745;SDS011;65671;49.976;20.038;2023-05-10T09:11:42;4.28;;;2.67;;
76745;SDS011;65671;49.976;20.038;2023-05-10T09:14:09;5.25;;;3.30;;
76745;SDS011;65671;49.976;20.038;2023-05-10T09:16:37;4.13;;;2.95;;
76745;SDS011;65671;49.976;20.038;2023-05-10T09:19:03;3.70;;;2.55;;
76745;SDS011;65671;49.976;20.038;2023-05-10T09:21:28;7.13;;;3.03;;
76745;SDS011;65671;49.976;20.038;2023-05-10T09:23:55;4.88;;;2.83;;
76745;SDS011;65671;49.976;20.038;2023-05-10T09:26:24;4.07;;;2.70;;
76745;SDS011;65671;49.976;20.038;2023-05-10T09:28:53;3.35;;;2.83;;
76745;SDS011;65671;49.976;20.038;2023-05-10T09:31:22;5.40;;;2.45;;
76745;SDS011;65671;49.976;20.038;2023-05-10T09:33:51;3.85;;;2.53;;
76745;SDS011;65671;49.976;20.038;2023-05-10T09:36:17;5.60;;;2.30;;
76745;SDS011;65671;49.976;20.038;2023-05-10T09:38:50;4.75;;;2.30;;
76745;SDS011;65671;49.976;20.038;2023-05-10T09:43:44;3.03;;;2.40;;
76745;SDS011;65671;49.976;20.038;2023-05-10T09:46:09;5.32;;;2.70;;
76745;SDS011;65671;49.976;20.038;2023-05-10T09:48:40;5.70;;;2.63;;
76745;SDS011;65671;49.976;20.038;2023-05-10T09:51:08;3.97;;;2.35;;
76745;SDS011;65671;49.976;20.038;2023-05-10T09:53:33;4.32;;;2.67;;
76745;SDS011;65671;49.976;20.038;2023-05-10T09:55:58;5.00;;;3.05;;
76745;SDS011;65671;49.976;20.038;2023-05-10T09:58:25;3.78;;;2.60;;
76745;SDS011;65671;49.976;20.038;2023-05-10T10:00:50;4.22;;;2.40;;
76745;SDS011;65671;49.976;20.038;2023-05-10T10:03:18;4.05;;;2.15;;
76745;SDS011;65671;49.976;20.038;2023-05-10T10:05:46;3.22;;;2.42;;
76745;SDS011;65671;49.976;20.038;2023-05-10T10:08:13;4.18;;;2.42;;
76745;SDS011;65671;49.976;20.038;2023-05-10T10:10:40;2.80;;;1.90;;
76745;SDS011;65671;49.976;20.038;2023-05-10T10:13:06;4.60;;;2.10;;
76745;SDS011;65671;49.976;20.038;2023-05-10T10:15:33;4.32;;;2.80;;
76745;SDS011;65671;49.976;20.038;2023-05-10T10:17:59;2.85;;;2.20;;
76745;SDS011;65671;49.976;20.038;2023-05-10T10:20:26;3.13;;;2.20;;
76745;SDS011;65671;49.976;20.038;2023-05-10T10:22:53;3.65;;;2.33;;
76745;SDS011;65671;49.976;20.038;2023-05-10T10:25:19;4.45;;;2.20;;
76745;SDS011;65671;49.976;20.038;2023-05-10T10:35:31;3.35;;;2.67;;
76745;SDS011;65671;49.976;20.038;2023-05-10T10:37:57;3.92;;;2.35;;
76745;SDS011;65671;49.976;20.038;2023-05-10T10:42:53;4.72;;;2.47;;
76745;SDS011;65671;49.976;20.038;2023-05-10T10:45:20;3.88;;;2.28;;
76745;SDS011;65671;49.976;20.038;2023-05-10T10:47:46;3.75;;;2.10;;
76745;SDS011;65671;49.976;20.038;2023-05-10T10:50:12;3.53;;;2.97;;
76745;SDS011;65671;49.976;20.038;2023-05-10T10:52:41;5.18;;;2.30;;
76745;SDS011;65671;49.976;20.038;2023-05-10T10:55:09;3.30;;;2.20;;
76745;SDS011;65671;49.976;20.038;2023-05-10T10:57:51;2.50;;;2.10;;
76745;SDS011;65671;49.976;20.038;2023-05-10T11:00:29;3.05;;;2.25;;
76745;SDS011;65671;49.976;20.038;2023-05-10T11:03:04;2.97;;;2.30;;
76745;SDS011;65671;49.976;20.038;2023-05-10T11:08:09;3.20;;;2.45;;
76745;SDS011;65671;49.976;20.038;2023-05-10T11:10:37;5.05;;;2.70;;
76745;SDS011;65671;49.976;20.038;2023-05-10T11:18:19;4.00;;;2.30;;
76745;SDS011;65671;49.976;20.038;2023-05-10T11:20:50;7.63;;;2.75;;
76745;SDS011;65671;49.976;20.038;2023-05-10T11:23:17;4.32;;;2.80;;
76745;SDS011;65671;49.976;20.038;2023-05-10T11:25:44;6.45;;;3.17;;
76745;SDS011;65671;49.976;20.038;2023-05-10T11:28:14;5.68;;;2.40;;
76745;SDS011;65671;49.976;20.038;2023-05-10T11:30:41;3.53;;;2.35;;
76745;SDS011;65671;49.976;20.038;2023-05-10T11:33:14;3.50;;;2.70;;
76745;SDS011;65671;49.976;20.038;2023-05-10T11:35:41;3.58;;;2.53;;
76745;SDS011;65671;49.976;20.038;2023-05-10T11:38:07;5.30;;;3.00;;
76745;SDS011;65671;49.976;20.038;2023-05-10T11:40:34;3.85;;;2.83;;
76745;SDS011;65671;49.976;20.038;2023-05-10T11:43:00;4.85;;;2.88;;
76745;SDS011;65671;49.976;20.038;2023-05-10T11:45:26;4.95;;;2.50;;
76745;SDS011;65671;49.976;20.038;2023-05-10T11:47:54;3.15;;;2.38;;
76745;SDS011;65671;49.976;20.038;2023-05-10T11:50:20;5.82;;;2.63;;
76745;SDS011;65671;49.976;20.038;2023-05-10T11:52:50;4.10;;;2.90;;
76745;SDS011;65671;49.976;20.038;2023-05-10T11:55:17;3.92;;;2.63;;
76745;SDS011;65671;49.976;20.038;2023-05-10T11:57:43;2.67;;;2.08;;
76745;SDS011;65671;49.976;20.038;2023-05-10T12:00:11;5.60;;;2.80;;
76745;SDS011;65671;49.976;20.038;2023-05-10T12:02:37;3.50;;;2.50;;
76745;SDS011;65671;49.976;20.038;2023-05-10T12:05:04;3.78;;;2.60;;
76745;SDS011;65671;49.976;20.038;2023-05-10T12:07:31;3.85;;;2.50;;
76745;SDS011;65671;49.976;20.038;2023-05-10T12:12:39;3.58;;;2.25;;
76745;SDS011;65671;49.976;20.038;2023-05-10T12:17:45;4.90;;;2.92;;
76745;SDS011;65671;49.976;20.038;2023-05-10T12:20:21;3.78;;;3.00;;
76745;SDS011;65671;49.976;20.038;2023-05-10T12:22:51;6.30;;;3.05;;
76745;SDS011;65671;49.976;20.038;2023-05-10T12:25:20;4.80;;;2.95;;
76745;SDS011;65671;49.976;20.038;2023-05-10T12:27:53;5.13;;;2.75;;
76745;SDS011;65671;49.976;20.038;2023-05-10T12:30:27;3.67;;;3.38;;
76745;SDS011;65671;49.976;20.038;2023-05-10T12:32:59;2.60;;;2.20;;
76745;SDS011;65671;49.976;20.038;2023-05-10T12:35:27;3.72;;;2.38;;
76745;SDS011;65671;49.976;20.038;2023-05-10T12:37:55;2.80;;;2.30;;
76745;SDS011;65671;49.976;20.038;2023-05-10T12:40:20;3.83;;;2.20;;
76745;SDS011;65671;49.976;20.038;2023-05-10T12:42:46;3.63;;;2.30;;
76745;SDS011;65671;49.976;20.038;2023-05-10T12:45:12;3.80;;;2.28;;
76745;SDS011;65671;49.976;20.038;2023-05-10T12:47:38;3.83;;;2.58;;
76745;SDS011;65671;49.976;20.038;2023-05-10T12:50:04;4.85;;;2.83;;
76745;SDS011;65671;49.976;20.038;2023-05-10T12:52:30;4.57;;;2.53;;
76745;SDS011;65671;49.976;20.038;2023-05-10T12:54:57;4.45;;;2.55;;
76745;SDS011;65671;49.976;20.038;2023-05-10T12:57:23;4.15;;;2.45;;
76745;SDS011;65671;49.976;20.038;2023-05-10T12:59:50;3.80;;;2.58;;
76745;SDS011;65671;49.976;20.038;2023-05-10T13:02:15;3.80;;;2.85;;
76745;SDS011;65671;49.976;20.038;2023-05-10T13:04:43;3.45;;;2.60;;
76745;SDS011;65671;49.976;20.038;2023-05-10T13:07:09;3.47;;;2.45;;
76745;SDS011;65671;49.976;20.038;2023-05-10T13:09:35;3.33;;;2.40;;
76745;SDS011;65671;49.976;20.038;2023-05-10T13:12:01;3.28;;;2.25;;
76745;SDS011;65671;49.976;20.038;2023-05-10T13:14:27;3.63;;;2.40;;
76745;SDS011;65671;49.976;20.038;2023-05-10T13:16:52;3.50;;;2.58;;
76745;SDS011;65671;49.976;20.038;2023-05-10T13:19:18;3.95;;;2.35;;
76745;SDS011;65671;49.976;20.038;2023-05-10T13:21:45;3.78;;;2.30;;
76745;SDS011;65671;49.976;20.038;2023-05-10T13:24:10;3.67;;;2.50;;
76745;SDS011;65671;49.976;20.038;2023-05-10T13:26:39;9.30;;;3.78;;
76745;SDS011;65671;49.976;20.038;2023-05-10T13:29:06;5.15;;;3.00;;
76745;SDS011;65671;49.976;20.038;2023-05-10T13:31:32;4.05;;;2.55;;
76745;SDS011;65671;49.976;20.038;2023-05-10T13:33:59;3.90;;;2.75;;
76745;SDS011;65671;49.976;20.038;2023-05-10T13:36:24;5.00;;;3.33;;
76745;SDS011;65671;49.976;20.038;2023-05-10T13:38:50;3.55;;;2.42;;
76745;SDS011;65671;49.976;20.038;2023-05-10T13:41:16;4.78;;;2.83;;
76745;SDS011;65671;49.976;20.038;2023-05-10T13:43:41;6.18;;;2.95;;
76745;SDS011;65671;49.976;20.038;2023-05-10T13:46:07;6.10;;;2.92;;
76745;SDS011;65671;49.976;20.038;2023-05-10T13:48:33;3.20;;;2.35;;
76745;SDS011;65671;49.976;20.038;2023-05-10T13:50:58;3.33;;;2.45;;
76745;SDS011;65671;49.976;20.038;2023-05-10T13:53:24;3.10;;;2.42;;
76745;SDS011;65671;49.976;20.038;2023-05-10T13:59:06;4.63;;;2.58;;
76745;SDS011;65671;49.976;20.038;2023-05-10T14:01:32;3.58;;;2.35;;
76745;SDS011;65671;49.976;20.038;2023-05-10T14:03:59;5.05;;;2.60;;
76745;SDS011;65671;49.976;20.038;2023-05-10T14:06:25;3.17;;;2.20;;
76745;SDS011;65671;49.976;20.038;2023-05-10T14:08:52;4.53;;;2.63;;
76745;SDS011;65671;49.976;20.038;2023-05-10T14:11:19;3.03;;;2.15;;
76745;SDS011;65671;49.976;20.038;2023-05-10T14:13:45;4.35;;;2.45;;
76745;SDS011;65671;49.976;20.038;2023-05-10T14:16:10;3.05;;;2.33;;
76745;SDS011;65671;49.976;20.038;2023-05-10T14:18:36;3.15;;;2.60;;
76745;SDS011;65671;49.976;20.038;2023-05-10T14:21:03;5.55;;;2.20;;
76745;SDS011;65671;49.976;20.038;2023-05-10T14:23:28;4.90;;;2.45;;
76745;SDS011;65671;49.976;20.038;2023-05-10T14:25:55;5.65;;;2.47;;
76745;SDS011;65671;49.976;20.038;2023-05-10T14:28:20;4.40;;;2.33;;
76745;SDS011;65671;49.976;20.038;2023-05-10T14:30:47;6.32;;;2.35;;
76745;SDS011;65671;49.976;20.038;2023-05-10T14:33:13;4.35;;;2.25;;
76745;SDS011;65671;49.976;20.038;2023-05-10T14:35:39;3.65;;;2.25;;
76745;SDS011;65671;49.976;20.038;2023-05-10T14:38:04;3.40;;;2.42;;
76745;SDS011;65671;49.976;20.038;2023-05-10T14:40:30;5.47;;;2.65;;
76745;SDS011;65671;49.976;20.038;2023-05-10T14:42:56;8.10;;;2.65;;
76745;SDS011;65671;49.976;20.038;2023-05-10T14:45:21;4.70;;;2.20;;
76745;SDS011;65671;49.976;20.038;2023-05-10T14:47:48;3.10;;;2.58;;
76745;SDS011;65671;49.976;20.038;2023-05-10T14:50:14;4.47;;;2.42;;
76745;SDS011;65671;49.976;20.038;2023-05-10T14:56:00;5.95;;;3.15;;
76745;SDS011;65671;49.976;20.038;2023-05-10T14:58:28;3.88;;;2.75;;
76745;SDS011;65671;49.976;20.038;2023-05-10T15:00:55;3.70;;;2.25;;
76745;SDS011;65671;49.976;20.038;2023-05-10T15:03:21;7.25;;;4.00;;
76745;SDS011;65671;49.976;20.038;2023-05-10T15:05:47;14.73;;;3.53;;
76745;SDS011;65671;49.976;20.038;2023-05-10T15:08:13;3.08;;;2.35;;
76745;SDS011;65671;49.976;20.038;2023-05-10T15:10:39;4.18;;;2.80;;
76745;SDS011;65671;49.976;20.038;2023-05-10T15:13:05;4.93;;;3.00;;
76745;SDS011;65671;49.976;20.038;2023-05-10T15:15:31;5.00;;;2.90;;
76745;SDS011;65671;49.976;20.038;2023-05-10T15:17:56;4.68;;;2.63;;